LFTH Airport Information

Runway Information
Runway 05 Length 6955 ft width 148 ft
Elevation 6 ft Threshold 722 ft Heading 51
Runway 23 Length 6955 ft Width 148 ft
Elevation 6 ft Threshold 0 ft Heading 231
Runway 14 Length 6234 ft width 164 ft
Elevation 7 ft Threshold 951 ft Heading 135
Runway 32 Length 6234 ft Width 164 ft
Elevation 6 ft Threshold 295 ft Heading 315
Airport Frequencies
Type APP Name TOULON APP Frequency 118.825 MHZ
Type ARSA Name HYERES RDR Frequency 36.255 MHZ
Type ATIS Name HYERES ATI Frequency 129.65 MHZ
Type GND Name HYERES GND Frequency 121.8 MHZ
Type TWR Name HYERES TWR Frequency 121 MHZ
Airport Navaids
Type TACAN Name Hyeres Frequency 109000 KHZ
Type NDB Name Hyeres Frequency 322 KHZ
Airport Weather Information & NOTAM
ADDS - METARS form results

(1121 UTC 17 July 2018)
 
METAR text: LFTH 171100Z AUTO 21008KT 180V240 CAVOK 30/18 Q1012 NOSIG
Conditions at: LFTH (HYERES/LE PALYVE, FR) observed 1100 UTC 17 July 2018
Temperature: 30.0°C (86°F)
Dewpoint: 18.0°C (64°F) [RH = 49%]
Pressure (altimeter): 29.88 inches Hg (1012.0 mb)
Winds: from the SSW (210 degrees) at 9 MPH (8 knots; 4.2 m/s)
Visibility: 6 or more miles (10+ km)
Ceiling: ceiling and visibility are OK
Clouds: unknown
Weather: no significant weather observed at this time

METAR text: LFTH 171030Z AUTO 20008KT CAVOK 29/18 Q1012 NOSIG
Conditions at: LFTH (HYERES/LE PALYVE, FR) observed 1030 UTC 17 July 2018
Temperature: 29.0°C (84°F)
Dewpoint: 18.0°C (64°F) [RH = 52%]
Pressure (altimeter): 29.88 inches Hg (1012.0 mb)
Winds: from the SSW (200 degrees) at 9 MPH (8 knots; 4.2 m/s)
Visibility: 6 or more miles (10+ km)
Ceiling: ceiling and visibility are OK
Clouds: unknown
Weather: no significant weather observed at this time